sensor_id;sensor_type;location;lat;lon;timestamp;P1;durP1;ratioP1;P2;durP2;ratioP2
16385;SDS011;8302;51.154;4.456;2022-07-30T00:00:51;5.95;;;3.47;;
16385;SDS011;8302;51.154;4.456;2022-07-30T00:03:19;4.03;;;3.15;;
16385;SDS011;8302;51.154;4.456;2022-07-30T00:05:47;9.00;;;3.40;;
16385;SDS011;8302;51.154;4.456;2022-07-30T00:08:14;5.07;;;3.35;;
16385;SDS011;8302;51.154;4.456;2022-07-30T00:10:43;7.93;;;4.05;;
16385;SDS011;8302;51.154;4.456;2022-07-30T00:13:15;4.85;;;3.30;;
16385;SDS011;8302;51.154;4.456;2022-07-30T00:15:43;8.05;;;3.45;;
16385;SDS011;8302;51.154;4.456;2022-07-30T00:18:10;6.57;;;3.92;;
16385;SDS011;8302;51.154;4.456;2022-07-30T00:20:38;6.10;;;3.67;;
16385;SDS011;8302;51.154;4.456;2022-07-30T00:23:09;7.22;;;3.72;;
16385;SDS011;8302;51.154;4.456;2022-07-30T00:25:37;4.88;;;3.60;;
16385;SDS011;8302;51.154;4.456;2022-07-30T00:28:06;7.25;;;3.60;;
16385;SDS011;8302;51.154;4.456;2022-07-30T00:30:33;6.72;;;3.55;;
16385;SDS011;8302;51.154;4.456;2022-07-30T00:33:01;7.50;;;3.10;;
16385;SDS011;8302;51.154;4.456;2022-07-30T00:35:29;9.63;;;3.60;;
16385;SDS011;8302;51.154;4.456;2022-07-30T00:37:57;9.45;;;3.83;;
16385;SDS011;8302;51.154;4.456;2022-07-30T00:40:24;4.80;;;3.80;;
16385;SDS011;8302;51.154;4.456;2022-07-30T00:42:53;8.75;;;3.10;;
16385;SDS011;8302;51.154;4.456;2022-07-30T00:45:22;4.40;;;3.17;;
16385;SDS011;8302;51.154;4.456;2022-07-30T00:47:49;6.78;;;3.10;;
16385;SDS011;8302;51.154;4.456;2022-07-30T00:50:17;6.85;;;3.55;;
16385;SDS011;8302;51.154;4.456;2022-07-30T00:52:46;5.85;;;3.75;;
16385;SDS011;8302;51.154;4.456;2022-07-30T00:55:14;8.85;;;3.60;;
16385;SDS011;8302;51.154;4.456;2022-07-30T00:57:42;4.20;;;3.03;;
16385;SDS011;8302;51.154;4.456;2022-07-30T01:00:11;7.05;;;3.70;;
16385;SDS011;8302;51.154;4.456;2022-07-30T01:02:41;7.88;;;4.45;;
16385;SDS011;8302;51.154;4.456;2022-07-30T01:05:09;6.88;;;3.35;;
16385;SDS011;8302;51.154;4.456;2022-07-30T01:07:37;8.18;;;3.90;;
16385;SDS011;8302;51.154;4.456;2022-07-30T01:10:05;6.07;;;3.63;;
16385;SDS011;8302;51.154;4.456;2022-07-30T01:12:33;8.32;;;3.90;;
16385;SDS011;8302;51.154;4.456;2022-07-30T01:15:01;7.65;;;4.60;;
16385;SDS011;8302;51.154;4.456;2022-07-30T01:17:30;9.52;;;4.00;;
16385;SDS011;8302;51.154;4.456;2022-07-30T01:20:00;6.20;;;3.90;;
16385;SDS011;8302;51.154;4.456;2022-07-30T01:22:34;6.53;;;4.20;;
16385;SDS011;8302;51.154;4.456;2022-07-30T01:25:07;8.30;;;3.88;;
16385;SDS011;8302;51.154;4.456;2022-07-30T01:27:39;4.97;;;4.00;;
16385;SDS011;8302;51.154;4.456;2022-07-30T01:30:10;6.65;;;4.07;;
16385;SDS011;8302;51.154;4.456;2022-07-30T01:32:40;7.10;;;4.13;;
16385;SDS011;8302;51.154;4.456;2022-07-30T01:35:10;7.15;;;3.80;;
16385;SDS011;8302;51.154;4.456;2022-07-30T01:37:38;7.20;;;3.80;;
16385;SDS011;8302;51.154;4.456;2022-07-30T01:40:07;9.52;;;4.75;;
16385;SDS011;8302;51.154;4.456;2022-07-30T01:42:35;8.43;;;4.05;;
16385;SDS011;8302;51.154;4.456;2022-07-30T01:45:06;4.72;;;3.75;;
16385;SDS011;8302;51.154;4.456;2022-07-30T01:47:35;5.50;;;3.53;;
16385;SDS011;8302;51.154;4.456;2022-07-30T01:50:04;6.63;;;3.53;;
16385;SDS011;8302;51.154;4.456;2022-07-30T01:52:36;6.22;;;3.80;;
16385;SDS011;8302;51.154;4.456;2022-07-30T01:55:04;6.05;;;4.03;;
16385;SDS011;8302;51.154;4.456;2022-07-30T01:57:42;5.15;;;3.97;;
16385;SDS011;8302;51.154;4.456;2022-07-30T02:00:13;7.63;;;4.40;;
16385;SDS011;8302;51.154;4.456;2022-07-30T02:02:45;5.35;;;3.90;;
16385;SDS011;8302;51.154;4.456;2022-07-30T02:05:13;8.70;;;4.80;;
16385;SDS011;8302;51.154;4.456;2022-07-30T02:07:42;8.98;;;4.72;;
16385;SDS011;8302;51.154;4.456;2022-07-30T02:10:13;6.97;;;4.03;;
16385;SDS011;8302;51.154;4.456;2022-07-30T02:12:45;8.98;;;4.72;;
16385;SDS011;8302;51.154;4.456;2022-07-30T02:15:20;5.25;;;4.38;;
16385;SDS011;8302;51.154;4.456;2022-07-30T02:17:52;7.32;;;4.35;;
16385;SDS011;8302;51.154;4.456;2022-07-30T02:20:23;6.32;;;4.82;;
16385;SDS011;8302;51.154;4.456;2022-07-30T02:22:55;9.68;;;4.90;;
16385;SDS011;8302;51.154;4.456;2022-07-30T02:25:24;12.05;;;4.70;;
16385;SDS011;8302;51.154;4.456;2022-07-30T02:27:53;6.53;;;4.20;;
16385;SDS011;8302;51.154;4.456;2022-07-30T02:30:24;7.13;;;4.88;;
16385;SDS011;8302;51.154;4.456;2022-07-30T02:32:54;8.60;;;5.00;;
16385;SDS011;8302;51.154;4.456;2022-07-30T02:35:24;6.50;;;4.57;;
16385;SDS011;8302;51.154;4.456;2022-07-30T02:37:53;8.75;;;5.40;;
16385;SDS011;8302;51.154;4.456;2022-07-30T02:40:21;6.28;;;4.80;;
16385;SDS011;8302;51.154;4.456;2022-07-30T02:42:50;7.40;;;5.22;;
16385;SDS011;8302;51.154;4.456;2022-07-30T02:45:22;8.65;;;5.15;;
16385;SDS011;8302;51.154;4.456;2022-07-30T02:47:53;10.32;;;5.03;;
16385;SDS011;8302;51.154;4.456;2022-07-30T02:50:22;7.82;;;4.70;;
16385;SDS011;8302;51.154;4.456;2022-07-30T02:52:52;8.68;;;4.38;;
16385;SDS011;8302;51.154;4.456;2022-07-30T02:55:20;7.93;;;5.00;;
16385;SDS011;8302;51.154;4.456;2022-07-30T02:57:49;7.57;;;5.03;;
16385;SDS011;8302;51.154;4.456;2022-07-30T03:00:18;9.27;;;5.55;;
16385;SDS011;8302;51.154;4.456;2022-07-30T03:02:48;6.30;;;4.97;;
16385;SDS011;8302;51.154;4.456;2022-07-30T03:05:23;8.07;;;5.45;;
16385;SDS011;8302;51.154;4.456;2022-07-30T03:07:52;7.45;;;5.22;;
16385;SDS011;8302;51.154;4.456;2022-07-30T03:10:21;8.73;;;5.47;;
16385;SDS011;8302;51.154;4.456;2022-07-30T03:12:49;8.48;;;5.05;;
16385;SDS011;8302;51.154;4.456;2022-07-30T03:15:17;6.65;;;4.78;;
16385;SDS011;8302;51.154;4.456;2022-07-30T03:17:45;9.88;;;5.97;;
16385;SDS011;8302;51.154;4.456;2022-07-30T03:20:16;8.23;;;5.38;;
16385;SDS011;8302;51.154;4.456;2022-07-30T03:22:47;8.63;;;5.10;;
16385;SDS011;8302;51.154;4.456;2022-07-30T03:25:17;8.35;;;5.20;;
16385;SDS011;8302;51.154;4.456;2022-07-30T03:27:45;10.75;;;5.90;;
16385;SDS011;8302;51.154;4.456;2022-07-30T03:30:13;8.68;;;5.28;;
16385;SDS011;8302;51.154;4.456;2022-07-30T03:32:41;9.77;;;5.60;;
16385;SDS011;8302;51.154;4.456;2022-07-30T03:35:09;7.93;;;6.10;;
16385;SDS011;8302;51.154;4.456;2022-07-30T03:37:43;8.40;;;5.88;;
16385;SDS011;8302;51.154;4.456;2022-07-30T03:40:13;8.23;;;5.47;;
16385;SDS011;8302;51.154;4.456;2022-07-30T03:42:41;7.10;;;5.70;;
16385;SDS011;8302;51.154;4.456;2022-07-30T03:45:14;9.43;;;5.47;;
16385;SDS011;8302;51.154;4.456;2022-07-30T03:47:42;8.10;;;5.22;;
16385;SDS011;8302;51.154;4.456;2022-07-30T03:50:11;7.68;;;5.43;;
16385;SDS011;8302;51.154;4.456;2022-07-30T03:52:41;9.55;;;5.90;;
16385;SDS011;8302;51.154;4.456;2022-07-30T03:55:15;8.65;;;5.43;;
16385;SDS011;8302;51.154;4.456;2022-07-30T03:57:49;11.45;;;6.03;;
16385;SDS011;8302;51.154;4.456;2022-07-30T04:00:23;7.05;;;5.28;;
16385;SDS011;8302;51.154;4.456;2022-07-30T04:02:51;7.53;;;5.63;;
16385;SDS011;8302;51.154;4.456;2022-07-30T04:05:45;9.18;;;5.78;;
16385;SDS011;8302;51.154;4.456;2022-07-30T04:08:13;8.88;;;5.75;;
16385;SDS011;8302;51.154;4.456;2022-07-30T04:10:43;7.57;;;5.78;;
16385;SDS011;8302;51.154;4.456;2022-07-30T04:13:30;10.32;;;5.82;;
16385;SDS011;8302;51.154;4.456;2022-07-30T04:16:00;7.93;;;5.80;;
16385;SDS011;8302;51.154;4.456;2022-07-30T04:18:49;8.95;;;5.35;;
16385;SDS011;8302;51.154;4.456;2022-07-30T04:21:17;8.55;;;5.72;;
16385;SDS011;8302;51.154;4.456;2022-07-30T04:23:47;7.70;;;5.00;;
16385;SDS011;8302;51.154;4.456;2022-07-30T04:26:33;11.20;;;5.90;;
16385;SDS011;8302;51.154;4.456;2022-07-30T04:29:03;6.90;;;5.53;;
16385;SDS011;8302;51.154;4.456;2022-07-30T04:31:32;8.15;;;6.25;;
16385;SDS011;8302;51.154;4.456;2022-07-30T04:34:44;9.07;;;5.95;;
16385;SDS011;8302;51.154;4.456;2022-07-30T04:37:14;8.75;;;5.88;;
16385;SDS011;8302;51.154;4.456;2022-07-30T04:39:42;8.48;;;5.80;;
16385;SDS011;8302;51.154;4.456;2022-07-30T04:42:11;10.27;;;5.55;;
16385;SDS011;8302;51.154;4.456;2022-07-30T04:44:40;9.25;;;5.95;;
16385;SDS011;8302;51.154;4.456;2022-07-30T04:47:24;11.65;;;5.53;;
16385;SDS011;8302;51.154;4.456;2022-07-30T04:50:15;10.10;;;5.85;;
16385;SDS011;8302;51.154;4.456;2022-07-30T04:52:45;10.25;;;5.75;;
16385;SDS011;8302;51.154;4.456;2022-07-30T04:55:19;8.10;;;5.30;;
16385;SDS011;8302;51.154;4.456;2022-07-30T04:57:51;8.63;;;5.28;;
16385;SDS011;8302;51.154;4.456;2022-07-30T05:00:20;6.80;;;5.15;;
16385;SDS011;8302;51.154;4.456;2022-07-30T05:02:49;9.38;;;5.53;;
16385;SDS011;8302;51.154;4.456;2022-07-30T05:05:19;10.07;;;5.55;;
16385;SDS011;8302;51.154;4.456;2022-07-30T05:07:49;9.27;;;5.75;;
16385;SDS011;8302;51.154;4.456;2022-07-30T05:10:17;9.13;;;5.45;;
16385;SDS011;8302;51.154;4.456;2022-07-30T05:12:45;9.52;;;5.50;;
16385;SDS011;8302;51.154;4.456;2022-07-30T05:15:17;7.28;;;5.15;;
16385;SDS011;8302;51.154;4.456;2022-07-30T05:17:45;10.63;;;5.50;;
16385;SDS011;8302;51.154;4.456;2022-07-30T05:20:13;11.90;;;5.30;;
16385;SDS011;8302;51.154;4.456;2022-07-30T05:22:57;6.65;;;4.88;;
16385;SDS011;8302;51.154;4.456;2022-07-30T05:25:25;6.97;;;4.95;;
16385;SDS011;8302;51.154;4.456;2022-07-30T05:27:59;8.55;;;5.25;;
16385;SDS011;8302;51.154;4.456;2022-07-30T05:30:28;9.30;;;5.25;;
16385;SDS011;8302;51.154;4.456;2022-07-30T05:32:58;8.63;;;4.75;;
16385;SDS011;8302;51.154;4.456;2022-07-30T05:35:29;8.23;;;5.13;;
16385;SDS011;8302;51.154;4.456;2022-07-30T05:37:57;9.50;;;5.78;;
16385;SDS011;8302;51.154;4.456;2022-07-30T05:40:29;6.53;;;5.22;;
16385;SDS011;8302;51.154;4.456;2022-07-30T05:43:26;7.10;;;4.82;;
16385;SDS011;8302;51.154;4.456;2022-07-30T05:45:55;9.85;;;5.43;;
16385;SDS011;8302;51.154;4.456;2022-07-30T05:48:23;6.88;;;5.25;;
16385;SDS011;8302;51.154;4.456;2022-07-30T05:50:51;9.35;;;4.68;;
16385;SDS011;8302;51.154;4.456;2022-07-30T05:53:19;7.53;;;5.32;;
16385;SDS011;8302;51.154;4.456;2022-07-30T05:56:21;6.95;;;4.63;;
16385;SDS011;8302;51.154;4.456;2022-07-30T05:58:59;8.13;;;4.55;;
16385;SDS011;8302;51.154;4.456;2022-07-30T06:01:48;6.80;;;4.25;;
16385;SDS011;8302;51.154;4.456;2022-07-30T06:04:22;6.43;;;4.50;;
16385;SDS011;8302;51.154;4.456;2022-07-30T06:06:56;7.25;;;4.80;;
16385;SDS011;8302;51.154;4.456;2022-07-30T06:09:25;6.25;;;4.68;;
16385;SDS011;8302;51.154;4.456;2022-07-30T06:12:02;6.65;;;4.70;;
16385;SDS011;8302;51.154;4.456;2022-07-30T06:14:30;7.53;;;4.40;;
16385;SDS011;8302;51.154;4.456;2022-07-30T06:17:00;7.40;;;4.65;;
16385;SDS011;8302;51.154;4.456;2022-07-30T06:19:45;6.32;;;3.42;;
16385;SDS011;8302;51.154;4.456;2022-07-30T06:22:14;6.75;;;4.45;;
16385;SDS011;8302;51.154;4.456;2022-07-30T06:24:46;6.45;;;4.13;;
16385;SDS011;8302;51.154;4.456;2022-07-30T06:27:17;4.63;;;3.70;;
16385;SDS011;8302;51.154;4.456;2022-07-30T06:29:45;6.45;;;4.05;;
16385;SDS011;8302;51.154;4.456;2022-07-30T06:32:15;8.77;;;4.30;;
16385;SDS011;8302;51.154;4.456;2022-07-30T06:34:44;5.72;;;4.13;;
16385;SDS011;8302;51.154;4.456;2022-07-30T06:37:12;7.10;;;4.05;;
16385;SDS011;8302;51.154;4.456;2022-07-30T06:39:42;6.65;;;4.38;;
16385;SDS011;8302;51.154;4.456;2022-07-30T06:42:46;6.30;;;3.90;;
16385;SDS011;8302;51.154;4.456;2022-07-30T06:45:37;8.20;;;3.78;;
16385;SDS011;8302;51.154;4.456;2022-07-30T06:48:19;9.98;;;4.47;;
16385;SDS011;8302;51.154;4.456;2022-07-30T06:50:47;5.65;;;3.60;;
16385;SDS011;8302;51.154;4.456;2022-07-30T06:53:16;7.05;;;3.65;;
16385;SDS011;8302;51.154;4.456;2022-07-30T06:56:16;5.90;;;3.97;;
16385;SDS011;8302;51.154;4.456;2022-07-30T06:58:57;7.07;;;4.18;;
16385;SDS011;8302;51.154;4.456;2022-07-30T07:01:54;7.35;;;4.05;;
16385;SDS011;8302;51.154;4.456;2022-07-30T07:04:24;11.63;;;4.22;;
16385;SDS011;8302;51.154;4.456;2022-07-30T07:06:51;5.38;;;3.15;;
16385;SDS011;8302;51.154;4.456;2022-07-30T07:09:32;5.45;;;3.60;;
16385;SDS011;8302;51.154;4.456;2022-07-30T07:12:26;7.90;;;3.60;;
16385;SDS011;8302;51.154;4.456;2022-07-30T07:14:54;6.15;;;3.72;;
16385;SDS011;8302;51.154;4.456;2022-07-30T07:17:21;8.52;;;3.65;;
16385;SDS011;8302;51.154;4.456;2022-07-30T07:19:57;5.82;;;3.65;;
16385;SDS011;8302;51.154;4.456;2022-07-30T07:22:34;6.00;;;3.45;;
16385;SDS011;8302;51.154;4.456;2022-07-30T07:25:02;4.38;;;3.00;;
16385;SDS011;8302;51.154;4.456;2022-07-30T07:27:31;6.18;;;3.78;;
16385;SDS011;8302;51.154;4.456;2022-07-30T07:30:01;5.15;;;3.92;;
16385;SDS011;8302;51.154;4.456;2022-07-30T07:32:34;6.40;;;3.08;;
16385;SDS011;8302;51.154;4.456;2022-07-30T07:35:04;5.70;;;3.08;;
16385;SDS011;8302;51.154;4.456;2022-07-30T07:37:36;5.32;;;3.05;;
16385;SDS011;8302;51.154;4.456;2022-07-30T07:40:05;5.35;;;3.00;;
16385;SDS011;8302;51.154;4.456;2022-07-30T07:42:38;5.15;;;2.55;;
16385;SDS011;8302;51.154;4.456;2022-07-30T07:45:06;0.90;;;0.80;;
16385;SDS011;8302;51.154;4.456;2022-07-30T07:47:43;2.28;;;1.10;;
16385;SDS011;8302;51.154;4.456;2022-07-30T07:50:52;1.95;;;1.08;;
16385;SDS011;8302;51.154;4.456;2022-07-30T07:53:28;4.65;;;1.30;;
16385;SDS011;8302;51.154;4.456;2022-07-30T07:55:56;3.15;;;1.40;;
16385;SDS011;8302;51.154;4.456;2022-07-30T07:58:25;2.58;;;1.40;;
16385;SDS011;8302;51.154;4.456;2022-07-30T08:00:59;2.58;;;1.13;;
16385;SDS011;8302;51.154;4.456;2022-07-30T08:03:53;3.65;;;2.22;;
16385;SDS011;8302;51.154;4.456;2022-07-30T08:06:45;3.97;;;1.63;;
16385;SDS011;8302;51.154;4.456;2022-07-30T08:09:48;2.58;;;1.48;;
16385;SDS011;8302;51.154;4.456;2022-07-30T08:12:48;4.10;;;2.10;;
16385;SDS011;8302;51.154;4.456;2022-07-30T08:15:34;4.50;;;2.00;;
16385;SDS011;8302;51.154;4.456;2022-07-30T08:18:14;3.80;;;2.05;;
16385;SDS011;8302;51.154;4.456;2022-07-30T08:20:53;3.58;;;2.05;;
16385;SDS011;8302;51.154;4.456;2022-07-30T08:23:28;5.57;;;2.00;;
16385;SDS011;8302;51.154;4.456;2022-07-30T08:25:55;4.72;;;2.03;;
16385;SDS011;8302;51.154;4.456;2022-07-30T08:28:24;3.38;;;2.13;;
16385;SDS011;8302;51.154;4.456;2022-07-30T08:31:03;4.53;;;2.03;;
16385;SDS011;8302;51.154;4.456;2022-07-30T08:33:31;4.30;;;2.25;;
16385;SDS011;8302;51.154;4.456;2022-07-30T08:36:00;3.95;;;2.38;;
16385;SDS011;8302;51.154;4.456;2022-07-30T08:38:37;3.15;;;2.13;;
16385;SDS011;8302;51.154;4.456;2022-07-30T08:41:06;4.05;;;1.98;;
16385;SDS011;8302;51.154;4.456;2022-07-30T08:43:34;4.10;;;2.13;;
16385;SDS011;8302;51.154;4.456;2022-07-30T08:46:03;5.75;;;2.80;;
16385;SDS011;8302;51.154;4.456;2022-07-30T08:48:43;3.80;;;2.08;;
16385;SDS011;8302;51.154;4.456;2022-07-30T08:51:14;3.22;;;1.80;;
16385;SDS011;8302;51.154;4.456;2022-07-30T08:53:43;6.30;;;2.00;;
16385;SDS011;8302;51.154;4.456;2022-07-30T08:56:12;3.92;;;2.20;;
16385;SDS011;8302;51.154;4.456;2022-07-30T08:58:40;4.60;;;1.90;;
16385;SDS011;8302;51.154;4.456;2022-07-30T09:01:08;1.92;;;1.70;;
16385;SDS011;8302;51.154;4.456;2022-07-30T09:03:36;6.05;;;1.90;;
16385;SDS011;8302;51.154;4.456;2022-07-30T09:06:10;4.55;;;1.70;;
16385;SDS011;8302;51.154;4.456;2022-07-30T09:08:39;3.25;;;1.90;;
16385;SDS011;8302;51.154;4.456;2022-07-30T09:11:08;5.60;;;1.85;;
16385;SDS011;8302;51.154;4.456;2022-07-30T09:13:37;3.03;;;1.88;;
16385;SDS011;8302;51.154;4.456;2022-07-30T09:16:07;3.67;;;1.48;;
16385;SDS011;8302;51.154;4.456;2022-07-30T09:18:44;1.83;;;1.40;;
16385;SDS011;8302;51.154;4.456;2022-07-30T09:21:13;2.55;;;1.42;;
16385;SDS011;8302;51.154;4.456;2022-07-30T09:23:55;4.25;;;1.83;;
16385;SDS011;8302;51.154;4.456;2022-07-30T09:27:00;2.47;;;1.60;;
16385;SDS011;8302;51.154;4.456;2022-07-30T09:29:46;1.52;;;1.42;;
16385;SDS011;8302;51.154;4.456;2022-07-30T09:32:48;3.45;;;1.70;;
16385;SDS011;8302;51.154;4.456;2022-07-30T09:35:52;2.42;;;1.48;;
16385;SDS011;8302;51.154;4.456;2022-07-30T09:38:48;1.90;;;1.42;;
16385;SDS011;8302;51.154;4.456;2022-07-30T09:41:49;1.83;;;1.30;;
16385;SDS011;8302;51.154;4.456;2022-07-30T09:44:23;6.97;;;2.10;;
16385;SDS011;8302;51.154;4.456;2022-07-30T09:46:54;3.90;;;2.33;;
16385;SDS011;8302;51.154;4.456;2022-07-30T09:49:31;0.85;;;0.73;;
16385;SDS011;8302;51.154;4.456;2022-07-30T09:51:59;2.92;;;1.88;;
16385;SDS011;8302;51.154;4.456;2022-07-30T09:54:43;2.80;;;1.58;;
16385;SDS011;8302;51.154;4.456;2022-07-30T09:57:17;3.75;;;1.45;;
16385;SDS011;8302;51.154;4.456;2022-07-30T09:59:56;4.43;;;2.33;;
16385;SDS011;8302;51.154;4.456;2022-07-30T10:02:29;4.43;;;2.10;;
16385;SDS011;8302;51.154;4.456;2022-07-30T10:05:17;3.83;;;1.63;;
16385;SDS011;8302;51.154;4.456;2022-07-30T10:07:46;7.78;;;1.85;;
16385;SDS011;8302;51.154;4.456;2022-07-30T10:10:17;6.40;;;1.67;;
16385;SDS011;8302;51.154;4.456;2022-07-30T10:12:45;2.75;;;1.88;;
16385;SDS011;8302;51.154;4.456;2022-07-30T10:15:18;2.42;;;1.80;;
16385;SDS011;8302;51.154;4.456;2022-07-30T10:17:46;4.05;;;1.90;;
16385;SDS011;8302;51.154;4.456;2022-07-30T10:20:27;2.92;;;1.98;;
16385;SDS011;8302;51.154;4.456;2022-07-30T10:23:35;3.60;;;1.75;;
16385;SDS011;8302;51.154;4.456;2022-07-30T10:26:28;3.85;;;1.80;;
16385;SDS011;8302;51.154;4.456;2022-07-30T10:29:19;3.58;;;1.60;;
16385;SDS011;8302;51.154;4.456;2022-07-30T10:32:00;2.90;;;1.50;;
16385;SDS011;8302;51.154;4.456;2022-07-30T10:34:28;3.70;;;1.90;;
16385;SDS011;8302;51.154;4.456;2022-07-30T10:37:00;2.65;;;1.60;;
16385;SDS011;8302;51.154;4.456;2022-07-30T10:39:33;3.35;;;1.73;;
16385;SDS011;8302;51.154;4.456;2022-07-30T10:42:05;4.75;;;1.67;;
16385;SDS011;8302;51.154;4.456;2022-07-30T10:44:39;3.17;;;1.42;;
16385;SDS011;8302;51.154;4.456;2022-07-30T10:47:10;2.75;;;1.80;;
16385;SDS011;8302;51.154;4.456;2022-07-30T10:49:39;4.07;;;1.42;;
16385;SDS011;8302;51.154;4.456;2022-07-30T10:52:08;3.70;;;1.98;;
16385;SDS011;8302;51.154;4.456;2022-07-30T10:54:38;4.18;;;1.88;;
16385;SDS011;8302;51.154;4.456;2022-07-30T10:57:07;13.23;;;2.00;;
16385;SDS011;8302;51.154;4.456;2022-07-30T11:02:31;6.40;;;2.35;;
16385;SDS011;8302;51.154;4.456;2022-07-30T11:05:20;2.75;;;1.65;;
16385;SDS011;8302;51.154;4.456;2022-07-30T11:08:27;3.15;;;1.60;;
16385;SDS011;8302;51.154;4.456;2022-07-30T11:11:01;5.78;;;1.80;;
16385;SDS011;8302;51.154;4.456;2022-07-30T11:13:49;2.90;;;1.70;;
16385;SDS011;8302;51.154;4.456;2022-07-30T11:16:19;3.72;;;1.80;;
16385;SDS011;8302;51.154;4.456;2022-07-30T11:19:05;4.75;;;2.00;;
16385;SDS011;8302;51.154;4.456;2022-07-30T11:22:20;6.20;;;1.95;;
16385;SDS011;8302;51.154;4.456;2022-07-30T11:24:48;2.95;;;1.50;;
16385;SDS011;8302;51.154;4.456;2022-07-30T11:30:02;4.88;;;1.80;;
16385;SDS011;8302;51.154;4.456;2022-07-30T11:32:30;2.55;;;1.60;;
16385;SDS011;8302;51.154;4.456;2022-07-30T11:38:03;4.82;;;2.03;;
16385;SDS011;8302;51.154;4.456;2022-07-30T11:40:32;4.18;;;2.15;;
16385;SDS011;8302;51.154;4.456;2022-07-30T11:43:20;2.78;;;1.52;;
16385;SDS011;8302;51.154;4.456;2022-07-30T11:46:06;2.13;;;1.30;;
16385;SDS011;8302;51.154;4.456;2022-07-30T11:48:37;3.80;;;1.88;;
16385;SDS011;8302;51.154;4.456;2022-07-30T11:51:05;2.15;;;1.60;;
16385;SDS011;8302;51.154;4.456;2022-07-30T11:53:35;5.85;;;1.67;;
16385;SDS011;8302;51.154;4.456;2022-07-30T11:56:03;6.22;;;1.25;;
16385;SDS011;8302;51.154;4.456;2022-07-30T11:58:32;5.28;;;2.10;;
16385;SDS011;8302;51.154;4.456;2022-07-30T12:01:01;1.92;;;1.50;;
16385;SDS011;8302;51.154;4.456;2022-07-30T12:03:37;1.88;;;1.30;;
16385;SDS011;8302;51.154;4.456;2022-07-30T12:06:06;4.45;;;1.90;;
16385;SDS011;8302;51.154;4.456;2022-07-30T12:08:39;3.55;;;1.50;;
16385;SDS011;8302;51.154;4.456;2022-07-30T12:11:07;4.50;;;1.42;;
16385;SDS011;8302;51.154;4.456;2022-07-30T12:13:36;1.40;;;1.23;;
16385;SDS011;8302;51.154;4.456;2022-07-30T12:16:14;1.80;;;1.25;;
16385;SDS011;8302;51.154;4.456;2022-07-30T12:18:43;2.28;;;1.48;;
16385;SDS011;8302;51.154;4.456;2022-07-30T12:21:11;4.82;;;1.48;;
16385;SDS011;8302;51.154;4.456;2022-07-30T12:23:51;4.45;;;1.30;;
16385;SDS011;8302;51.154;4.456;2022-07-30T12:26:19;7.38;;;2.63;;
16385;SDS011;8302;51.154;4.456;2022-07-30T12:28:47;4.07;;;1.27;;
16385;SDS011;8302;51.154;4.456;2022-07-30T12:31:15;2.90;;;1.60;;
16385;SDS011;8302;51.154;4.456;2022-07-30T12:33:43;4.18;;;1.65;;
16385;SDS011;8302;51.154;4.456;2022-07-30T12:36:22;4.60;;;1.50;;
16385;SDS011;8302;51.154;4.456;2022-07-30T12:38:51;5.50;;;1.52;;
16385;SDS011;8302;51.154;4.456;2022-07-30T12:41:20;3.03;;;1.60;;
16385;SDS011;8302;51.154;4.456;2022-07-30T12:43:48;0.88;;;0.88;;
16385;SDS011;8302;51.154;4.456;2022-07-30T12:46:16;3.10;;;1.70;;
16385;SDS011;8302;51.154;4.456;2022-07-30T12:48:51;2.83;;;1.42;;
16385;SDS011;8302;51.154;4.456;2022-07-30T12:51:20;4.68;;;1.30;;
16385;SDS011;8302;51.154;4.456;2022-07-30T12:53:49;3.67;;;1.40;;
16385;SDS011;8302;51.154;4.456;2022-07-30T12:56:20;4.13;;;1.70;;
16385;SDS011;8302;51.154;4.456;2022-07-30T12:58:47;2.38;;;1.38;;
16385;SDS011;8302;51.154;4.456;2022-07-30T13:01:15;2.58;;;1.58;;
16385;SDS011;8302;51.154;4.456;2022-07-30T13:03:43;1.35;;;1.05;;
16385;SDS011;8302;51.154;4.456;2022-07-30T13:06:12;4.18;;;1.58;;
16385;SDS011;8302;51.154;4.456;2022-07-30T13:08:48;2.50;;;1.60;;
16385;SDS011;8302;51.154;4.456;2022-07-30T13:11:16;4.65;;;1.55;;
16385;SDS011;8302;51.154;4.456;2022-07-30T13:13:46;2.67;;;1.92;;
16385;SDS011;8302;51.154;4.456;2022-07-30T13:16:13;3.75;;;1.95;;
16385;SDS011;8302;51.154;4.456;2022-07-30T13:18:41;4.20;;;1.60;;
16385;SDS011;8302;51.154;4.456;2022-07-30T13:21:09;5.68;;;1.85;;
16385;SDS011;8302;51.154;4.456;2022-07-30T13:23:37;4.13;;;1.55;;
16385;SDS011;8302;51.154;4.456;2022-07-30T13:26:05;3.05;;;1.58;;
16385;SDS011;8302;51.154;4.456;2022-07-30T13:28:33;4.20;;;1.58;;
16385;SDS011;8302;51.154;4.456;2022-07-30T13:31:02;3.65;;;1.40;;
16385;SDS011;8302;51.154;4.456;2022-07-30T13:33:30;3.47;;;1.90;;
16385;SDS011;8302;51.154;4.456;2022-07-30T13:35:58;5.03;;;1.38;;
16385;SDS011;8302;51.154;4.456;2022-07-30T13:38:25;3.13;;;1.42;;
16385;SDS011;8302;51.154;4.456;2022-07-30T13:40:53;3.75;;;1.83;;
16385;SDS011;8302;51.154;4.456;2022-07-30T13:43:27;5.68;;;2.15;;
16385;SDS011;8302;51.154;4.456;2022-07-30T13:45:59;2.70;;;1.70;;
16385;SDS011;8302;51.154;4.456;2022-07-30T13:48:28;4.50;;;1.73;;
16385;SDS011;8302;51.154;4.456;2022-07-30T13:50:55;2.33;;;1.77;;
16385;SDS011;8302;51.154;4.456;2022-07-30T13:53:23;3.28;;;1.70;;
16385;SDS011;8302;51.154;4.456;2022-07-30T13:55:51;3.33;;;1.20;;
16385;SDS011;8302;51.154;4.456;2022-07-30T13:58:18;4.75;;;1.90;;
16385;SDS011;8302;51.154;4.456;2022-07-30T14:00:46;3.47;;;1.95;;
16385;SDS011;8302;51.154;4.456;2022-07-30T14:03:14;2.10;;;1.50;;
16385;SDS011;8302;51.154;4.456;2022-07-30T14:05:43;3.08;;;1.60;;
16385;SDS011;8302;51.154;4.456;2022-07-30T14:08:11;3.42;;;1.40;;
16385;SDS011;8302;51.154;4.456;2022-07-30T14:10:38;1.40;;;1.20;;
16385;SDS011;8302;51.154;4.456;2022-07-30T14:13:06;2.28;;;1.35;;
16385;SDS011;8302;51.154;4.456;2022-07-30T14:15:35;2.40;;;1.50;;
16385;SDS011;8302;51.154;4.456;2022-07-30T14:18:06;2.60;;;1.17;;
16385;SDS011;8302;51.154;4.456;2022-07-30T14:20:33;3.45;;;1.33;;
16385;SDS011;8302;51.154;4.456;2022-07-30T14:23:03;6.45;;;1.75;;
16385;SDS011;8302;51.154;4.456;2022-07-30T14:25:31;2.00;;;1.30;;
16385;SDS011;8302;51.154;4.456;2022-07-30T14:27:58;4.22;;;1.63;;
16385;SDS011;8302;51.154;4.456;2022-07-30T14:30:26;2.85;;;1.90;;
16385;SDS011;8302;51.154;4.456;2022-07-30T14:32:55;4.00;;;1.95;;
16385;SDS011;8302;51.154;4.456;2022-07-30T14:35:29;5.50;;;1.60;;
16385;SDS011;8302;51.154;4.456;2022-07-30T14:37:57;5.78;;;1.88;;
16385;SDS011;8302;51.154;4.456;2022-07-30T14:40:26;3.22;;;1.50;;
16385;SDS011;8302;51.154;4.456;2022-07-30T14:42:54;2.88;;;1.60;;
16385;SDS011;8302;51.154;4.456;2022-07-30T14:45:23;3.35;;;1.40;;
16385;SDS011;8302;51.154;4.456;2022-07-30T14:47:51;3.17;;;1.52;;
16385;SDS011;8302;51.154;4.456;2022-07-30T14:50:19;2.83;;;1.38;;
16385;SDS011;8302;51.154;4.456;2022-07-30T14:52:47;2.47;;;1.58;;
16385;SDS011;8302;51.154;4.456;2022-07-30T14:55:14;3.03;;;1.42;;
16385;SDS011;8302;51.154;4.456;2022-07-30T14:57:44;1.63;;;0.90;;
16385;SDS011;8302;51.154;4.456;2022-07-30T15:00:11;2.78;;;1.48;;
16385;SDS011;8302;51.154;4.456;2022-07-30T15:02:39;2.22;;;1.17;;
16385;SDS011;8302;51.154;4.456;2022-07-30T15:05:07;3.33;;;1.63;;
16385;SDS011;8302;51.154;4.456;2022-07-30T15:07:35;2.28;;;1.55;;
16385;SDS011;8302;51.154;4.456;2022-07-30T15:10:03;2.58;;;1.40;;
16385;SDS011;8302;51.154;4.456;2022-07-30T15:12:32;1.95;;;1.42;;
16385;SDS011;8302;51.154;4.456;2022-07-30T15:15:03;3.80;;;1.70;;
16385;SDS011;8302;51.154;4.456;2022-07-30T15:17:33;2.63;;;1.60;;
16385;SDS011;8302;51.154;4.456;2022-07-30T15:20:00;4.57;;;2.00;;
16385;SDS011;8302;51.154;4.456;2022-07-30T15:22:28;2.95;;;1.30;;
16385;SDS011;8302;51.154;4.456;2022-07-30T15:24:56;2.88;;;1.50;;
16385;SDS011;8302;51.154;4.456;2022-07-30T15:27:23;3.97;;;1.20;;
16385;SDS011;8302;51.154;4.456;2022-07-30T15:29:59;2.78;;;1.75;;
16385;SDS011;8302;51.154;4.456;2022-07-30T15:32:28;1.55;;;0.95;;
16385;SDS011;8302;51.154;4.456;2022-07-30T15:34:56;3.20;;;1.40;;
16385;SDS011;8302;51.154;4.456;2022-07-30T15:37:24;2.45;;;1.33;;
16385;SDS011;8302;51.154;4.456;2022-07-30T15:39:51;1.65;;;1.20;;
16385;SDS011;8302;51.154;4.456;2022-07-30T15:42:20;1.42;;;0.77;;